Branch County Memorial Airport


Codes: KOEB/
Name: Branch County Memorial Airport
City: Coldwater
Country: United States
Elevation: 959 ft.

Photos at Branch County Memorial Airport


   Photos courtesy of SpottingLog. You can add your own sightings and photos by signing up for a free trial today.



No photos found.

Weather at Branch County Memorial Airport


Time (UTC)DescriptionTempratureWindCloud coverageVisibilityPressureHumidity
15-Apr-2024 15:00Clear Sky16°C7 mph, E0%10000m1015hPa35%
15-Apr-2024 18:00Few Clouds17°C4 mph, W12%10000m1015hPa36%
15-Apr-2024 21:00Clear Sky19°C9 mph, NW0%10000m1015hPa34%
16-Apr-2024 00:00Clear Sky15°C9 mph, N0%10000m1016hPa55%
16-Apr-2024 03:00Clear Sky11°C7 mph, N0%10000m1018hPa65%
16-Apr-2024 06:00Few Clouds9°C9 mph, NE13%10000m1019hPa64%
16-Apr-2024 09:00Broken Clouds8°C9 mph, E74%10000m1020hPa70%
16-Apr-2024 12:00Overcast Clouds8°C13 mph, E86%10000m1020hPa69%
16-Apr-2024 15:00Overcast Clouds13°C16 mph, E100%10000m1020hPa57%
16-Apr-2024 18:00Overcast Clouds17°C18 mph, E100%10000m1017hPa50%
16-Apr-2024 21:00Overcast Clouds16°C18 mph, E100%10000m1015hPa56%
17-Apr-2024 00:00Overcast Clouds12°C20 mph, E100%10000m1013hPa60%
17-Apr-2024 03:00Overcast Clouds12°C18 mph, SE100%10000m1014hPa60%
17-Apr-2024 06:00Light Rain12°C18 mph, SE100%10000m1010hPa86%
17-Apr-2024 09:00Light Rain14°C16 mph, SE100%10000m1008hPa95%
17-Apr-2024 12:00Overcast Clouds14°C16 mph, SE100%10000m1007hPa93%
17-Apr-2024 15:00Light Rain16°C18 mph, S100%10000m1004hPa88%
17-Apr-2024 18:00Light Rain19°C22 mph, S100%8640m1002hPa82%
17-Apr-2024 21:00Light Rain19°C18 mph, SW100%10000m1001hPa68%
18-Apr-2024 00:00Overcast Clouds15°C18 mph, W92%10000m1004hPa78%
18-Apr-2024 03:00Broken Clouds13°C18 mph, W80%10000m1006hPa82%
18-Apr-2024 06:00Light Rain11°C18 mph, W91%10000m1009hPa82%
18-Apr-2024 09:00Overcast Clouds9°C16 mph, W100%10000m1011hPa81%
18-Apr-2024 12:00Overcast Clouds8°C13 mph, W100%10000m1013hPa80%
18-Apr-2024 15:00Overcast Clouds9°C13 mph, W100%10000m1016hPa76%
18-Apr-2024 18:00Overcast Clouds13°C13 mph, W99%10000m1016hPa59%
18-Apr-2024 21:00Overcast Clouds13°C11 mph, W100%10000m1015hPa54%
19-Apr-2024 00:00Overcast Clouds11°C7 mph, NW100%10000m1016hPa62%
19-Apr-2024 03:00Light Rain10°C7 mph, NW100%10000m1017hPa70%
19-Apr-2024 06:00Light Rain8°C7 mph, NW100%10000m1017hPa81%
19-Apr-2024 09:00Overcast Clouds8°C9 mph, W100%10000m1017hPa81%
19-Apr-2024 12:00Overcast Clouds7°C9 mph, NW100%10000m1017hPa72%
19-Apr-2024 15:00Clear Sky10°C16 mph, NW8%10000m1018hPa49%
19-Apr-2024 18:00Scattered Clouds10°C20 mph, W31%10000m1017hPa38%
19-Apr-2024 21:00Scattered Clouds9°C20 mph, W50%10000m1017hPa41%
20-Apr-2024 00:00Scattered Clouds7°C16 mph, W29%10000m1017hPa50%
20-Apr-2024 03:00Few Clouds5°C11 mph, NW19%10000m1018hPa55%
20-Apr-2024 06:00Scattered Clouds3°C11 mph, NW31%10000m1019hPa60%
20-Apr-2024 09:00Broken Clouds2°C11 mph, W81%10000m1020hPa64%
20-Apr-2024 12:00Broken Clouds2°C11 mph, W68%10000m1021hPa65%